sensor_id;sensor_type;location;lat;lon;timestamp;noise_LAeq;noise_LA_min;noise_LA_max;noise_LA01;noise_LA95
66460;Laerm;58055;52.456;4.738;2023-08-21T00:00:00;53.94;48.92;58.69;;
66460;Laerm;58055;52.456;4.738;2023-08-21T00:00:11;53.95;49.48;57.82;;
66460;Laerm;58055;52.456;4.738;2023-08-21T00:00:23;53.34;48.81;57.48;;
66460;Laerm;58055;52.456;4.738;2023-08-21T00:00:33;52.06;47.51;57.92;;
66460;Laerm;58055;52.456;4.738;2023-08-21T00:00:44;53.12;48.90;57.33;;
66460;Laerm;58055;52.456;4.738;2023-08-21T00:00:54;53.01;48.10;57.66;;
66460;Laerm;58055;52.456;4.738;2023-08-21T00:01:04;53.10;48.60;58.57;;
66460;Laerm;58055;52.456;4.738;2023-08-21T00:01:14;52.82;49.57;57.61;;
66460;Laerm;58055;52.456;4.738;2023-08-21T00:01:25;51.63;47.71;57.22;;
66460;Laerm;58055;52.456;4.738;2023-08-21T00:01:35;49.10;47.45;51.45;;
66460;Laerm;58055;52.456;4.738;2023-08-21T00:01:45;49.09;47.45;51.49;;
66460;Laerm;58055;52.456;4.738;2023-08-21T00:01:55;49.07;47.51;51.14;;
66460;Laerm;58055;52.456;4.738;2023-08-21T00:02:06;49.02;47.06;52.66;;
66460;Laerm;58055;52.456;4.738;2023-08-21T00:02:16;48.77;47.51;52.50;;
66460;Laerm;58055;52.456;4.738;2023-08-21T00:02:26;48.78;47.34;51.73;;
66460;Laerm;58055;52.456;4.738;2023-08-21T00:02:38;48.95;47.37;51.24;;
66460;Laerm;58055;52.456;4.738;2023-08-21T00:02:48;49.06;47.29;53.04;;
66460;Laerm;58055;52.456;4.738;2023-08-21T00:02:58;48.94;47.04;52.11;;
66460;Laerm;58055;52.456;4.738;2023-08-21T00:03:08;48.35;46.88;50.77;;
66460;Laerm;58055;52.456;4.738;2023-08-21T00:03:19;48.52;47.17;51.93;;
66460;Laerm;58055;52.456;4.738;2023-08-21T00:03:29;48.55;47.10;51.41;;
66460;Laerm;58055;52.456;4.738;2023-08-21T00:03:40;48.90;47.17;51.16;;
66460;Laerm;58055;52.456;4.738;2023-08-21T00:03:50;49.25;47.79;52.62;;
66460;Laerm;58055;52.456;4.738;2023-08-21T00:04:00;48.40;47.19;51.07;;
66460;Laerm;58055;52.456;4.738;2023-08-21T00:04:11;48.42;47.20;50.89;;
66460;Laerm;58055;52.456;4.738;2023-08-21T00:04:21;48.41;47.09;50.82;;
66460;Laerm;58055;52.456;4.738;2023-08-21T00:04:32;48.67;47.06;53.88;;
66460;Laerm;58055;52.456;4.738;2023-08-21T00:04:42;48.37;46.75;50.55;;
66460;Laerm;58055;52.456;4.738;2023-08-21T00:04:52;48.40;46.99;50.79;;
66460;Laerm;58055;52.456;4.738;2023-08-21T00:05:02;48.38;47.13;50.49;;
66460;Laerm;58055;52.456;4.738;2023-08-21T00:05:13;48.63;46.74;51.61;;
66460;Laerm;58055;52.456;4.738;2023-08-21T00:05:23;48.27;47.12;50.66;;
66460;Laerm;58055;52.456;4.738;2023-08-21T00:05:33;48.38;46.95;50.58;;
66460;Laerm;58055;52.456;4.738;2023-08-21T00:05:44;48.25;46.93;50.16;;
66460;Laerm;58055;52.456;4.738;2023-08-21T00:05:54;48.54;47.15;51.74;;
66460;Laerm;58055;52.456;4.738;2023-08-21T00:06:04;48.60;47.03;52.56;;
66460;Laerm;58055;52.456;4.738;2023-08-21T00:06:14;48.45;46.80;51.70;;
66460;Laerm;58055;52.456;4.738;2023-08-21T00:06:25;48.38;47.10;50.22;;
66460;Laerm;58055;52.456;4.738;2023-08-21T00:06:35;48.85;47.38;51.31;;
66460;Laerm;58055;52.456;4.738;2023-08-21T00:06:45;49.22;47.23;52.88;;
66460;Laerm;58055;52.456;4.738;2023-08-21T00:06:55;49.30;47.07;53.85;;
66460;Laerm;58055;52.456;4.738;2023-08-21T00:07:06;49.58;47.57;52.56;;
66460;Laerm;58055;52.456;4.738;2023-08-21T00:07:16;49.51;47.08;54.01;;
66460;Laerm;58055;52.456;4.738;2023-08-21T00:07:27;48.82;47.14;52.42;;
66460;Laerm;58055;52.456;4.738;2023-08-21T00:07:37;50.87;47.71;59.76;;
66460;Laerm;58055;52.456;4.738;2023-08-21T00:07:47;49.75;47.13;53.78;;
66460;Laerm;58055;52.456;4.738;2023-08-21T00:08:01;49.27;47.19;54.73;;
66460;Laerm;58055;52.456;4.738;2023-08-21T00:08:11;48.94;46.88;52.52;;
66460;Laerm;58055;52.456;4.738;2023-08-21T00:08:21;49.75;47.11;53.86;;
66460;Laerm;58055;52.456;4.738;2023-08-21T00:08:31;49.48;47.24;53.48;;
66460;Laerm;58055;52.456;4.738;2023-08-21T00:08:42;48.87;47.10;52.75;;
66460;Laerm;58055;52.456;4.738;2023-08-21T00:08:52;49.04;47.15;55.88;;
66460;Laerm;58055;52.456;4.738;2023-08-21T00:09:02;49.06;46.83;56.01;;
66460;Laerm;58055;52.456;4.738;2023-08-21T00:09:12;49.08;47.24;56.95;;
66460;Laerm;58055;52.456;4.738;2023-08-21T00:09:23;48.85;47.27;56.16;;
66460;Laerm;58055;52.456;4.738;2023-08-21T00:09:33;48.28;47.21;50.22;;
66460;Laerm;58055;52.456;4.738;2023-08-21T00:09:43;48.58;46.83;56.04;;
66460;Laerm;58055;52.456;4.738;2023-08-21T00:09:53;48.24;46.47;51.92;;
66460;Laerm;58055;52.456;4.738;2023-08-21T00:10:04;48.83;46.80;51.68;;
66460;Laerm;58055;52.456;4.738;2023-08-21T00:10:15;48.56;46.44;53.08;;
66460;Laerm;58055;52.456;4.738;2023-08-21T00:10:25;48.06;46.63;50.17;;
66460;Laerm;58055;52.456;4.738;2023-08-21T00:10:38;47.98;46.87;50.01;;
66460;Laerm;58055;52.456;4.738;2023-08-21T00:10:48;47.94;46.75;50.59;;
66460;Laerm;58055;52.456;4.738;2023-08-21T00:10:59;48.26;46.84;51.60;;
66460;Laerm;58055;52.456;4.738;2023-08-21T00:11:09;48.76;47.41;51.56;;
66460;Laerm;58055;52.456;4.738;2023-08-21T00:11:19;48.58;46.83;53.37;;
66460;Laerm;58055;52.456;4.738;2023-08-21T00:11:29;47.99;46.77;51.30;;
66460;Laerm;58055;52.456;4.738;2023-08-21T00:11:40;48.27;46.82;51.13;;
66460;Laerm;58055;52.456;4.738;2023-08-21T00:11:50;48.03;46.75;50.79;;
66460;Laerm;58055;52.456;4.738;2023-08-21T00:12:00;48.23;46.87;51.42;;
66460;Laerm;58055;52.456;4.738;2023-08-21T00:12:10;50.86;47.29;56.78;;
66460;Laerm;58055;52.456;4.738;2023-08-21T00:12:21;50.49;47.22;55.55;;
66460;Laerm;58055;52.456;4.738;2023-08-21T00:12:31;49.37;46.90;54.14;;
66460;Laerm;58055;52.456;4.738;2023-08-21T00:12:41;50.72;47.47;54.96;;
66460;Laerm;58055;52.456;4.738;2023-08-21T00:12:51;50.39;47.35;53.98;;
66460;Laerm;58055;52.456;4.738;2023-08-21T00:13:02;50.25;47.33;54.82;;
66460;Laerm;58055;52.456;4.738;2023-08-21T00:13:12;49.72;47.34;53.69;;
66460;Laerm;58055;52.456;4.738;2023-08-21T00:13:23;49.76;46.74;54.44;;
66460;Laerm;58055;52.456;4.738;2023-08-21T00:13:33;50.35;47.04;55.41;;
66460;Laerm;58055;52.456;4.738;2023-08-21T00:13:44;50.01;46.60;55.12;;
66460;Laerm;58055;52.456;4.738;2023-08-21T00:13:54;50.18;47.00;54.42;;
66460;Laerm;58055;52.456;4.738;2023-08-21T00:14:05;50.07;46.86;55.04;;
66460;Laerm;58055;52.456;4.738;2023-08-21T00:14:16;50.05;46.71;53.96;;
66460;Laerm;58055;52.456;4.738;2023-08-21T00:14:26;50.60;46.80;55.99;;
66460;Laerm;58055;52.456;4.738;2023-08-21T00:14:37;49.79;47.02;54.41;;
66460;Laerm;58055;52.456;4.738;2023-08-21T00:14:47;49.97;46.95;54.82;;
66460;Laerm;58055;52.456;4.738;2023-08-21T00:14:57;50.56;47.10;55.01;;
66460;Laerm;58055;52.456;4.738;2023-08-21T00:15:08;51.19;47.02;56.56;;
66460;Laerm;58055;52.456;4.738;2023-08-21T00:15:19;50.99;46.59;56.17;;
66460;Laerm;58055;52.456;4.738;2023-08-21T00:15:30;50.92;47.19;55.54;;
66460;Laerm;58055;52.456;4.738;2023-08-21T00:15:40;51.74;47.20;58.17;;
66460;Laerm;58055;52.456;4.738;2023-08-21T00:15:50;52.49;47.13;57.36;;
66460;Laerm;58055;52.456;4.738;2023-08-21T00:16:01;49.93;46.74;55.70;;
66460;Laerm;58055;52.456;4.738;2023-08-21T00:16:11;49.86;47.12;53.81;;
66460;Laerm;58055;52.456;4.738;2023-08-21T00:16:21;49.32;46.95;53.84;;
66460;Laerm;58055;52.456;4.738;2023-08-21T00:16:32;49.86;47.04;55.18;;
66460;Laerm;58055;52.456;4.738;2023-08-21T00:16:42;49.23;46.52;52.87;;
66460;Laerm;58055;52.456;4.738;2023-08-21T00:16:52;49.86;46.22;55.18;;
66460;Laerm;58055;52.456;4.738;2023-08-21T00:17:03;49.22;46.79;53.44;;
66460;Laerm;58055;52.456;4.738;2023-08-21T00:17:13;50.18;46.86;54.97;;
66460;Laerm;58055;52.456;4.738;2023-08-21T00:17:23;49.78;46.86;54.40;;
66460;Laerm;58055;52.456;4.738;2023-08-21T00:17:33;47.86;46.61;50.75;;
66460;Laerm;58055;52.456;4.738;2023-08-21T00:17:44;48.40;46.81;51.52;;
66460;Laerm;58055;52.456;4.738;2023-08-21T00:17:54;48.29;46.83;51.87;;
66460;Laerm;58055;52.456;4.738;2023-08-21T00:18:05;48.46;46.82;51.92;;
66460;Laerm;58055;52.456;4.738;2023-08-21T00:18:15;48.74;46.92;52.19;;
66460;Laerm;58055;52.456;4.738;2023-08-21T00:18:25;48.09;46.86;50.27;;
66460;Laerm;58055;52.456;4.738;2023-08-21T00:18:36;48.06;46.31;50.90;;
66460;Laerm;58055;52.456;4.738;2023-08-21T00:18:46;48.10;46.70;50.57;;
66460;Laerm;58055;52.456;4.738;2023-08-21T00:18:56;48.01;46.70;50.31;;
66460;Laerm;58055;52.456;4.738;2023-08-21T00:19:07;47.84;46.43;50.61;;
66460;Laerm;58055;52.456;4.738;2023-08-21T00:19:17;47.85;46.59;50.53;;
66460;Laerm;58055;52.456;4.738;2023-08-21T00:19:27;47.93;46.76;51.40;;
66460;Laerm;58055;52.456;4.738;2023-08-21T00:19:38;48.53;47.24;51.33;;
66460;Laerm;58055;52.456;4.738;2023-08-21T00:19:48;48.65;46.56;51.24;;
66460;Laerm;58055;52.456;4.738;2023-08-21T00:19:58;48.90;46.97;51.26;;
66460;Laerm;58055;52.456;4.738;2023-08-21T00:20:09;48.67;46.64;51.08;;
66460;Laerm;58055;52.456;4.738;2023-08-21T00:20:19;48.39;46.87;51.33;;
66460;Laerm;58055;52.456;4.738;2023-08-21T00:20:30;48.46;46.54;51.27;;
66460;Laerm;58055;52.456;4.738;2023-08-21T00:20:40;48.71;46.83;51.36;;
66460;Laerm;58055;52.456;4.738;2023-08-21T00:20:52;48.50;46.78;50.62;;
66460;Laerm;58055;52.456;4.738;2023-08-21T00:21:03;48.60;46.82;54.04;;
66460;Laerm;58055;52.456;4.738;2023-08-21T00:21:13;48.47;46.56;50.56;;
66460;Laerm;58055;52.456;4.738;2023-08-21T00:21:23;48.39;46.81;51.26;;
66460;Laerm;58055;52.456;4.738;2023-08-21T00:21:34;48.66;46.63;51.51;;
66460;Laerm;58055;52.456;4.738;2023-08-21T00:21:44;48.61;47.05;51.41;;
66460;Laerm;58055;52.456;4.738;2023-08-21T00:21:54;48.53;46.99;50.83;;
66460;Laerm;58055;52.456;4.738;2023-08-21T00:22:04;48.14;46.51;54.22;;
66460;Laerm;58055;52.456;4.738;2023-08-21T00:22:15;47.77;46.49;49.62;;
66460;Laerm;58055;52.456;4.738;2023-08-21T00:22:25;47.84;46.52;51.47;;
66460;Laerm;58055;52.456;4.738;2023-08-21T00:22:36;48.44;46.87;50.54;;
66460;Laerm;58055;52.456;4.738;2023-08-21T00:22:46;48.54;46.56;51.56;;
66460;Laerm;58055;52.456;4.738;2023-08-21T00:22:56;47.89;46.36;49.97;;
66460;Laerm;58055;52.456;4.738;2023-08-21T00:23:07;48.39;46.94;51.39;;
66460;Laerm;58055;52.456;4.738;2023-08-21T00:23:17;48.10;46.88;52.01;;
66460;Laerm;58055;52.456;4.738;2023-08-21T00:23:27;48.42;46.49;50.77;;
66460;Laerm;58055;52.456;4.738;2023-08-21T00:23:38;48.87;46.83;51.37;;
66460;Laerm;58055;52.456;4.738;2023-08-21T00:23:48;48.75;46.87;51.61;;
66460;Laerm;58055;52.456;4.738;2023-08-21T00:23:59;48.54;46.78;50.97;;
66460;Laerm;58055;52.456;4.738;2023-08-21T00:24:09;47.93;46.38;51.19;;
66460;Laerm;58055;52.456;4.738;2023-08-21T00:24:19;47.79;46.40;50.09;;
66460;Laerm;58055;52.456;4.738;2023-08-21T00:24:29;47.81;46.59;50.06;;
66460;Laerm;58055;52.456;4.738;2023-08-21T00:24:40;47.87;46.50;50.80;;
66460;Laerm;58055;52.456;4.738;2023-08-21T00:24:50;47.85;46.57;49.28;;
66460;Laerm;58055;52.456;4.738;2023-08-21T00:25:00;48.02;46.66;50.10;;
66460;Laerm;58055;52.456;4.738;2023-08-21T00:25:10;48.49;46.65;51.75;;
66460;Laerm;58055;52.456;4.738;2023-08-21T00:25:21;48.48;46.74;51.53;;
66460;Laerm;58055;52.456;4.738;2023-08-21T00:25:31;48.58;46.70;51.24;;
66460;Laerm;58055;52.456;4.738;2023-08-21T00:25:45;48.79;46.81;54.59;;
66460;Laerm;58055;52.456;4.738;2023-08-21T00:25:55;48.78;46.79;52.09;;
66460;Laerm;58055;52.456;4.738;2023-08-21T00:26:06;48.41;47.00;51.87;;
66460;Laerm;58055;52.456;4.738;2023-08-21T00:26:16;49.37;47.25;58.02;;
66460;Laerm;58055;52.456;4.738;2023-08-21T00:26:26;48.43;47.04;51.36;;
66460;Laerm;58055;52.456;4.738;2023-08-21T00:26:36;48.64;46.99;51.86;;
66460;Laerm;58055;52.456;4.738;2023-08-21T00:26:47;48.38;46.81;52.01;;
66460;Laerm;58055;52.456;4.738;2023-08-21T00:26:57;49.12;46.99;51.93;;
66460;Laerm;58055;52.456;4.738;2023-08-21T00:27:07;48.78;47.24;52.25;;
66460;Laerm;58055;52.456;4.738;2023-08-21T00:27:17;48.30;46.92;50.27;;
66460;Laerm;58055;52.456;4.738;2023-08-21T00:27:28;51.62;47.63;54.17;;
66460;Laerm;58055;52.456;4.738;2023-08-21T00:27:38;51.02;48.23;53.85;;
66460;Laerm;58055;52.456;4.738;2023-08-21T00:27:48;50.62;46.67;55.98;;
66460;Laerm;58055;52.456;4.738;2023-08-21T00:27:59;49.91;46.68;56.17;;
66460;Laerm;58055;52.456;4.738;2023-08-21T00:28:09;52.07;48.71;55.06;;
66460;Laerm;58055;52.456;4.738;2023-08-21T00:28:19;51.91;49.35;54.01;;
66460;Laerm;58055;52.456;4.738;2023-08-21T00:28:29;52.10;48.29;53.91;;
66460;Laerm;58055;52.456;4.738;2023-08-21T00:28:43;51.98;49.96;54.40;;
66460;Laerm;58055;52.456;4.738;2023-08-21T00:28:53;51.76;49.74;53.92;;
66460;Laerm;58055;52.456;4.738;2023-08-21T00:29:04;51.30;48.98;54.21;;
66460;Laerm;58055;52.456;4.738;2023-08-21T00:29:14;51.64;49.32;54.41;;
66460;Laerm;58055;52.456;4.738;2023-08-21T00:29:25;51.29;47.28;55.15;;
66460;Laerm;58055;52.456;4.738;2023-08-21T00:29:35;51.25;48.99;53.68;;
66460;Laerm;58055;52.456;4.738;2023-08-21T00:29:46;50.65;47.12;56.79;;
66460;Laerm;58055;52.456;4.738;2023-08-21T00:29:57;50.15;47.07;55.62;;
66460;Laerm;58055;52.456;4.738;2023-08-21T00:30:08;49.31;47.32;55.45;;
66460;Laerm;58055;52.456;4.738;2023-08-21T00:30:18;49.31;47.48;51.94;;
66460;Laerm;58055;52.456;4.738;2023-08-21T00:30:29;49.03;47.11;53.55;;
66460;Laerm;58055;52.456;4.738;2023-08-21T00:30:39;51.01;47.24;53.18;;
66460;Laerm;58055;52.456;4.738;2023-08-21T00:30:50;51.19;49.02;53.37;;
66460;Laerm;58055;52.456;4.738;2023-08-21T00:31:01;50.88;48.93;52.49;;
66460;Laerm;58055;52.456;4.738;2023-08-21T00:31:11;50.92;49.19;54.57;;
66460;Laerm;58055;52.456;4.738;2023-08-21T00:31:22;50.79;48.92;52.63;;
66460;Laerm;58055;52.456;4.738;2023-08-21T00:31:32;50.67;48.92;53.58;;
66460;Laerm;58055;52.456;4.738;2023-08-21T00:31:43;50.72;49.18;54.17;;
66460;Laerm;58055;52.456;4.738;2023-08-21T00:31:53;50.59;49.08;52.37;;
66460;Laerm;58055;52.456;4.738;2023-08-21T00:32:03;50.84;49.12;53.54;;
66460;Laerm;58055;52.456;4.738;2023-08-21T00:32:13;49.55;47.04;53.37;;
66460;Laerm;58055;52.456;4.738;2023-08-21T00:32:24;51.03;47.71;53.91;;
66460;Laerm;58055;52.456;4.738;2023-08-21T00:32:34;50.77;47.23;52.93;;
66460;Laerm;58055;52.456;4.738;2023-08-21T00:32:45;51.31;48.66;53.90;;
66460;Laerm;58055;52.456;4.738;2023-08-21T00:32:55;50.98;48.00;54.60;;
66460;Laerm;58055;52.456;4.738;2023-08-21T00:33:05;49.06;46.83;55.24;;
66460;Laerm;58055;52.456;4.738;2023-08-21T00:33:16;48.50;46.65;50.61;;
66460;Laerm;58055;52.456;4.738;2023-08-21T00:33:26;48.62;46.68;52.88;;
66460;Laerm;58055;52.456;4.738;2023-08-21T00:33:36;48.72;46.70;52.43;;
66460;Laerm;58055;52.456;4.738;2023-08-21T00:33:47;48.80;46.53;52.75;;
66460;Laerm;58055;52.456;4.738;2023-08-21T00:33:57;48.68;46.79;52.90;;
66460;Laerm;58055;52.456;4.738;2023-08-21T00:34:07;48.92;46.86;52.89;;
66460;Laerm;58055;52.456;4.738;2023-08-21T00:34:21;48.37;46.88;51.92;;
66460;Laerm;58055;52.456;4.738;2023-08-21T00:34:31;48.83;46.76;53.21;;
66460;Laerm;58055;52.456;4.738;2023-08-21T00:34:41;48.96;46.64;53.93;;
66460;Laerm;58055;52.456;4.738;2023-08-21T00:34:53;48.54;46.87;56.24;;
66460;Laerm;58055;52.456;4.738;2023-08-21T00:35:03;48.43;47.00;51.10;;
66460;Laerm;58055;52.456;4.738;2023-08-21T00:35:13;49.19;46.68;52.53;;
66460;Laerm;58055;52.456;4.738;2023-08-21T00:35:24;49.78;47.07;52.30;;
66460;Laerm;58055;52.456;4.738;2023-08-21T00:35:34;49.72;47.17;52.34;;
66460;Laerm;58055;52.456;4.738;2023-08-21T00:35:44;48.90;46.73;52.56;;
66460;Laerm;58055;52.456;4.738;2023-08-21T00:35:55;48.64;46.38;54.32;;
66460;Laerm;58055;52.456;4.738;2023-08-21T00:36:05;48.52;46.57;51.09;;
66460;Laerm;58055;52.456;4.738;2023-08-21T00:36:15;48.49;46.79;53.33;;
66460;Laerm;58055;52.456;4.738;2023-08-21T00:36:26;48.45;46.73;54.01;;
66460;Laerm;58055;52.456;4.738;2023-08-21T00:36:36;48.41;46.17;51.43;;
66460;Laerm;58055;52.456;4.738;2023-08-21T00:36:46;48.46;46.90;50.90;;
66460;Laerm;58055;52.456;4.738;2023-08-21T00:36:56;48.71;46.75;54.80;;
66460;Laerm;58055;52.456;4.738;2023-08-21T00:37:07;49.63;46.57;52.66;;
66460;Laerm;58055;52.456;4.738;2023-08-21T00:37:17;49.48;46.65;53.86;;
66460;Laerm;58055;52.456;4.738;2023-08-21T00:37:27;49.55;46.91;53.84;;
66460;Laerm;58055;52.456;4.738;2023-08-21T00:37:37;49.27;46.66;53.30;;
66460;Laerm;58055;52.456;4.738;2023-08-21T00:37:48;49.30;46.61;54.10;;
66460;Laerm;58055;52.456;4.738;2023-08-21T00:37:58;49.48;47.23;54.01;;
66460;Laerm;58055;52.456;4.738;2023-08-21T00:38:08;48.34;46.56;51.15;;
66460;Laerm;58055;52.456;4.738;2023-08-21T00:38:19;48.17;46.41;51.74;;
66460;Laerm;58055;52.456;4.738;2023-08-21T00:38:29;49.95;46.72;54.54;;
66460;Laerm;58055;52.456;4.738;2023-08-21T00:38:39;49.49;46.62;54.61;;
66460;Laerm;58055;52.456;4.738;2023-08-21T00:38:50;49.42;46.74;53.34;;
66460;Laerm;58055;52.456;4.738;2023-08-21T00:39:00;49.24;46.64;52.78;;
66460;Laerm;58055;52.456;4.738;2023-08-21T00:39:10;49.31;46.72;52.58;;
66460;Laerm;58055;52.456;4.738;2023-08-21T00:39:21;49.37;46.67;52.78;;
66460;Laerm;58055;52.456;4.738;2023-08-21T00:39:31;49.24;46.69;53.81;;
66460;Laerm;58055;52.456;4.738;2023-08-21T00:39:41;48.97;46.60;52.25;;
66460;Laerm;58055;52.456;4.738;2023-08-21T00:39:51;49.19;46.52;53.81;;
66460;Laerm;58055;52.456;4.738;2023-08-21T00:40:02;48.94;46.67;52.07;;
66460;Laerm;58055;52.456;4.738;2023-08-21T00:40:12;49.27;46.56;52.34;;
66460;Laerm;58055;52.456;4.738;2023-08-21T00:40:23;49.16;46.73;52.52;;
66460;Laerm;58055;52.456;4.738;2023-08-21T00:40:33;49.47;46.69;54.38;;
66460;Laerm;58055;52.456;4.738;2023-08-21T00:40:44;49.57;46.82;52.95;;
66460;Laerm;58055;52.456;4.738;2023-08-21T00:40:54;49.26;46.43;53.63;;
66460;Laerm;58055;52.456;4.738;2023-08-21T00:41:04;49.55;46.90;53.01;;
66460;Laerm;58055;52.456;4.738;2023-08-21T00:41:14;49.38;46.77;53.67;;
66460;Laerm;58055;52.456;4.738;2023-08-21T00:41:25;48.87;46.59;52.36;;
66460;Laerm;58055;52.456;4.738;2023-08-21T00:41:35;48.44;46.60;51.92;;
66460;Laerm;58055;52.456;4.738;2023-08-21T00:41:45;48.50;46.57;52.54;;
66460;Laerm;58055;52.456;4.738;2023-08-21T00:41:55;48.41;46.79;51.46;;
66460;Laerm;58055;52.456;4.738;2023-08-21T00:42:06;48.53;46.73;51.23;;
66460;Laerm;58055;52.456;4.738;2023-08-21T00:42:17;48.67;46.71;53.34;;
66460;Laerm;58055;52.456;4.738;2023-08-21T00:42:27;48.58;46.46;53.61;;
66460;Laerm;58055;52.456;4.738;2023-08-21T00:42:38;48.49;46.69;53.67;;
66460;Laerm;58055;52.456;4.738;2023-08-21T00:42:48;48.50;46.60;51.46;;
66460;Laerm;58055;52.456;4.738;2023-08-21T00:42:58;48.57;46.51;54.67;;
66460;Laerm;58055;52.456;4.738;2023-08-21T00:43:08;48.94;46.69;55.01;;
66460;Laerm;58055;52.456;4.738;2023-08-21T00:43:19;48.56;46.98;51.23;;
66460;Laerm;58055;52.456;4.738;2023-08-21T00:43:29;48.51;47.07;50.16;;
66460;Laerm;58055;52.456;4.738;2023-08-21T00:43:40;48.51;46.88;51.86;;
66460;Laerm;58055;52.456;4.738;2023-08-21T00:43:50;48.34;46.72;50.63;;
66460;Laerm;58055;52.456;4.738;2023-08-21T00:44:00;48.59;46.97;51.18;;
66460;Laerm;58055;52.456;4.738;2023-08-21T00:44:10;48.64;46.92;51.89;;
66460;Laerm;58055;52.456;4.738;2023-08-21T00:44:21;48.80;46.94;56.19;;
66460;Laerm;58055;52.456;4.738;2023-08-21T00:44:31;48.92;47.13;52.59;;
66460;Laerm;58055;52.456;4.738;2023-08-21T00:44:41;49.01;47.23;52.69;;
66460;Laerm;58055;52.456;4.738;2023-08-21T00:44:52;48.95;46.81;53.32;;
66460;Laerm;58055;52.456;4.738;2023-08-21T00:45:02;48.91;46.93;55.06;;
66460;Laerm;58055;52.456;4.738;2023-08-21T00:45:13;49.06;47.12;56.07;;
66460;Laerm;58055;52.456;4.738;2023-08-21T00:45:24;49.09;47.51;51.63;;
66460;Laerm;58055;52.456;4.738;2023-08-21T00:45:34;48.91;47.25;50.97;;
66460;Laerm;58055;52.456;4.738;2023-08-21T00:45:45;48.91;47.06;52.38;;
66460;Laerm;58055;52.456;4.738;2023-08-21T00:45:56;48.76;46.86;51.45;;
66460;Laerm;58055;52.456;4.738;2023-08-21T00:46:07;48.27;46.79;50.83;;
66460;Laerm;58055;52.456;4.738;2023-08-21T00:46:17;48.54;46.91;51.00;;
66460;Laerm;58055;52.456;4.738;2023-08-21T00:46:27;48.54;46.81;51.46;;
66460;Laerm;58055;52.456;4.738;2023-08-21T00:46:38;48.18;46.65;51.50;;
66460;Laerm;58055;52.456;4.738;2023-08-21T00:46:48;48.62;46.86;60.82;;
66460;Laerm;58055;52.456;4.738;2023-08-21T00:46:58;48.24;47.12;50.64;;
66460;Laerm;58055;52.456;4.738;2023-08-21T00:47:09;48.35;47.13;50.38;;
66460;Laerm;58055;52.456;4.738;2023-08-21T00:47:19;48.11;46.76;50.05;;
66460;Laerm;58055;52.456;4.738;2023-08-21T00:47:29;48.16;46.80;50.22;;
66460;Laerm;58055;52.456;4.738;2023-08-21T00:47:40;48.20;46.80;50.16;;
66460;Laerm;58055;52.456;4.738;2023-08-21T00:47:51;48.32;46.69;50.84;;
66460;Laerm;58055;52.456;4.738;2023-08-21T00:48:01;48.47;46.97;51.08;;
66460;Laerm;58055;52.456;4.738;2023-08-21T00:48:11;48.32;46.92;50.78;;
66460;Laerm;58055;52.456;4.738;2023-08-21T00:48:22;48.28;46.84;50.41;;
66460;Laerm;58055;52.456;4.738;2023-08-21T00:48:32;48.48;46.63;50.92;;
66460;Laerm;58055;52.456;4.738;2023-08-21T00:48:43;48.37;46.91;51.11;;
66460;Laerm;58055;52.456;4.738;2023-08-21T00:48:54;48.45;46.55;50.73;;
66460;Laerm;58055;52.456;4.738;2023-08-21T00:49:04;48.59;46.83;51.59;;
66460;Laerm;58055;52.456;4.738;2023-08-21T00:49:14;48.59;47.25;50.76;;
66460;Laerm;58055;52.456;4.738;2023-08-21T00:49:25;48.47;46.97;51.12;;
66460;Laerm;58055;52.456;4.738;2023-08-21T00:49:35;48.35;46.73;50.86;;
66460;Laerm;58055;52.456;4.738;2023-08-21T00:49:46;48.27;46.70;50.50;;
66460;Laerm;58055;52.456;4.738;2023-08-21T00:49:57;48.49;46.87;52.58;;
66460;Laerm;58055;52.456;4.738;2023-08-21T00:50:07;48.43;46.90;50.97;;
66460;Laerm;58055;52.456;4.738;2023-08-21T00:50:24;48.28;46.81;51.17;;
66460;Laerm;58055;52.456;4.738;2023-08-21T00:50:35;48.35;46.79;50.57;;
66460;Laerm;58055;52.456;4.738;2023-08-21T00:50:45;48.36;46.92;51.30;;
66460;Laerm;58055;52.456;4.738;2023-08-21T00:50:56;48.39;46.90;50.75;;
66460;Laerm;58055;52.456;4.738;2023-08-21T00:51:06;48.31;46.80;51.56;;
66460;Laerm;58055;52.456;4.738;2023-08-21T00:51:16;48.60;46.86;51.34;;
66460;Laerm;58055;52.456;4.738;2023-08-21T00:51:27;48.40;46.71;51.51;;
66460;Laerm;58055;52.456;4.738;2023-08-21T00:51:37;48.46;46.68;50.90;;
66460;Laerm;58055;52.456;4.738;2023-08-21T00:51:48;48.19;46.77;50.84;;
66460;Laerm;58055;52.456;4.738;2023-08-21T00:51:59;48.48;46.89;50.95;;
66460;Laerm;58055;52.456;4.738;2023-08-21T00:52:12;48.49;46.68;51.06;;
66460;Laerm;58055;52.456;4.738;2023-08-21T00:52:22;48.26;47.05;51.43;;
66460;Laerm;58055;52.456;4.738;2023-08-21T00:52:33;48.31;46.71;50.48;;
66460;Laerm;58055;52.456;4.738;2023-08-21T00:52:45;48.47;47.18;50.84;;
66460;Laerm;58055;52.456;4.738;2023-08-21T00:52:56;48.50;47.10;51.82;;
66460;Laerm;58055;52.456;4.738;2023-08-21T00:53:06;48.67;47.10;57.75;;
66460;Laerm;58055;52.456;4.738;2023-08-21T00:53:17;48.64;46.97;54.57;;
66460;Laerm;58055;52.456;4.738;2023-08-21T00:53:27;48.95;46.38;54.09;;
66460;Laerm;58055;52.456;4.738;2023-08-21T00:53:38;48.47;46.93;53.66;;
66460;Laerm;58055;52.456;4.738;2023-08-21T00:53:48;48.51;46.79;55.54;;
66460;Laerm;58055;52.456;4.738;2023-08-21T00:53:58;48.70;46.79;59.02;;
66460;Laerm;58055;52.456;4.738;2023-08-21T00:54:09;48.54;46.86;53.17;;
66460;Laerm;58055;52.456;4.738;2023-08-21T00:54:19;48.45;46.79;53.12;;
66460;Laerm;58055;52.456;4.738;2023-08-21T00:54:30;48.70;46.90;54.53;;
66460;Laerm;58055;52.456;4.738;2023-08-21T00:54:40;48.67;46.75;54.42;;
66460;Laerm;58055;52.456;4.738;2023-08-21T00:54:51;48.49;46.85;53.31;;
66460;Laerm;58055;52.456;4.738;2023-08-21T00:55:01;48.90;47.02;54.45;;
66460;Laerm;58055;52.456;4.738;2023-08-21T00:55:13;48.46;47.08;54.32;;
66460;Laerm;58055;52.456;4.738;2023-08-21T00:55:23;48.30;47.08;51.42;;
66460;Laerm;58055;52.456;4.738;2023-08-21T00:55:34;48.23;46.82;51.39;;
66460;Laerm;58055;52.456;4.738;2023-08-21T00:55:44;48.30;46.94;55.80;;
66460;Laerm;58055;52.456;4.738;2023-08-21T00:55:54;47.99;46.54;52.50;;
66460;Laerm;58055;52.456;4.738;2023-08-21T00:56:05;48.01;46.49;55.85;;
66460;Laerm;58055;52.456;4.738;2023-08-21T00:56:15;47.96;46.77;57.48;;
66460;Laerm;58055;52.456;4.738;2023-08-21T00:56:25;47.83;46.74;50.45;;
66460;Laerm;58055;52.456;4.738;2023-08-21T00:56:36;47.63;46.57;49.76;;
66460;Laerm;58055;52.456;4.738;2023-08-21T00:56:46;47.65;46.55;49.05;;
66460;Laerm;58055;52.456;4.738;2023-08-21T00:56:57;47.68;46.47;51.51;;
66460;Laerm;58055;52.456;4.738;2023-08-21T00:57:07;48.07;46.67;56.33;;
66460;Laerm;58055;52.456;4.738;2023-08-21T00:57:17;47.84;46.53;55.73;;
66460;Laerm;58055;52.456;4.738;2023-08-21T00:57:28;47.78;46.49;52.53;;
66460;Laerm;58055;52.456;4.738;2023-08-21T00:57:39;47.90;46.37;52.79;;
66460;Laerm;58055;52.456;4.738;2023-08-21T00:57:49;47.75;46.60;53.51;;
66460;Laerm;58055;52.456;4.738;2023-08-21T00:58:00;49.98;46.58;56.96;;
66460;Laerm;58055;52.456;4.738;2023-08-21T00:58:12;52.54;46.80;59.29;;
66460;Laerm;58055;52.456;4.738;2023-08-21T00:58:23;47.67;46.47;51.78;;
66460;Laerm;58055;52.456;4.738;2023-08-21T00:58:34;47.67;46.56;50.48;;